Apache Creek, New Mexico
Current Conditions -  °F | °C
As of 12:55 PM on Friday 24 Oct 2014 (Local Time) from KJTC Reporting Station
Clear Clear  
Wind Chill: 72°   Ceiling: Unl
Heat Index: 72°   Visibility: 10mi
Dew Point: 34°   Wind: 3mph
Humidity: 25%   Direction: 360°N
Pressure: 30.41"   Gusts: NA
Location:  33.6665°N, 108.765°W
Report Text: KJTC 241855Z AUTO 36003KT 10SM CLR 22/01 A3041 RMK AO2
Loading
Personal Weather Stations






























Interactive Weather Map New forecast layout! Learn more

10-Day Weather Forecast

Advertisements
Track Severe Weather on mobile